Time;durP1;ratioP1;P1;durP2;ratioP2;P2;SDS_P1;SDS_P2;PMS_P1;PMS_P2;Temp;Humidity;BMP_temperature;BMP_pressure;BME280_temperature;BME280_humidity;BME280_pressure;Samples;Min_cycle;Max_cycle;Signal;HPM_P1;HPM_P2
2021/06/29 00:02:04;;;;;;;13.88;5.92;;;;;;;19.11;100.00;98938.21;1677625;84;20984;-63
2021/06/29 00:04:33;;;;;;;14.98;6.30;;;;;;;19.09;100.00;98940.95;1677776;84;21451;-64
2021/06/29 00:07:01;;;;;;;7.25;5.97;;;;;;;19.09;100.00;98944.09;1677564;84;21510;-65
2021/06/29 00:09:30;;;;;;;9.95;6.33;;;;;;;19.08;100.00;98943.22;1677786;84;21431;-63
2021/06/29 00:11:58;;;;;;;9.83;5.78;;;;;;;19.08;100.00;98943.69;1677440;84;20915;-64
2021/06/29 00:14:27;;;;;;;9.65;5.62;;;;;;;19.06;100.00;98940.22;1677785;84;20959;-65
2021/06/29 00:16:57;;;;;;;6.92;5.45;;;;;;;19.06;100.00;98941.55;1677562;84;21438;-65
2021/06/29 00:19:25;;;;;;;7.35;5.30;;;;;;;19.03;100.00;98941.22;1677931;84;21497;-63
2021/06/29 00:21:54;;;;;;;10.95;6.83;;;;;;;19.00;100.00;98941.36;1677568;84;21109;-63
2021/06/29 00:24:22;;;;;;;9.73;6.25;;;;;;;18.92;100.00;98934.57;1677718;84;20924;-65
2021/06/29 00:26:51;;;;;;;16.20;7.00;;;;;;;18.85;100.00;98926.83;1677517;84;21059;-63
2021/06/29 00:29:19;;;;;;;8.55;5.75;;;;;;;18.81;100.00;98927.02;1677783;84;21015;-63
2021/06/29 00:31:49;;;;;;;10.38;5.47;;;;;;;18.78;100.00;98925.81;1677558;84;20967;-63
2021/06/29 00:34:18;;;;;;;13.72;5.60;;;;;;;18.76;100.00;98924.55;1677770;84;21419;-64
2021/06/29 00:36:46;;;;;;;10.05;6.17;;;;;;;18.73;100.00;98923.34;1677555;84;20871;-63
2021/06/29 00:39:15;;;;;;;11.88;6.28;;;;;;;18.69;100.00;98924.88;1677524;84;20972;-64
2021/06/29 00:41:44;;;;;;;9.80;6.35;;;;;;;18.67;100.00;98927.61;1677453;84;21011;-66
2021/06/29 00:44:20;;;;;;;10.05;6.72;;;;;;;18.65;100.00;98925.47;1677561;84;21473;-64
2021/06/29 00:46:49;;;;;;;11.78;7.03;;;;;;;18.56;100.00;98923.16;1677549;84;23140;-64
2021/06/29 00:49:17;;;;;;;9.18;6.20;;;;;;;18.48;100.00;98923.95;1677776;84;20852;-64
2021/06/29 00:51:47;;;;;;;10.70;5.78;;;;;;;18.43;100.00;98916.56;1676817;84;21486;-64
2021/06/29 00:54:16;;;;;;;14.83;6.58;;;;;;;18.43;100.00;98920.09;1677740;84;20888;-64
2021/06/29 00:56:45;;;;;;;10.78;5.78;;;;;;;18.44;100.00;98915.62;1677602;84;21423;-64
2021/06/29 00:59:13;;;;;;;11.00;6.50;;;;;;;18.41;100.00;98911.75;1677705;84;21043;-66
2021/06/29 01:01:41;;;;;;;11.90;6.75;;;;;;;18.40;100.00;98917.55;1677661;84;21443;-66
2021/06/29 01:04:10;;;;;;;9.73;6.35;;;;;;;18.40;100.00;98910.02;1677482;84;21426;-64
2021/06/29 01:06:39;;;;;;;9.45;6.50;;;;;;;18.42;100.00;98917.49;1677733;84;21434;-66
2021/06/29 01:09:07;;;;;;;11.38;5.95;;;;;;;18.43;100.00;98910.75;1677545;84;21003;-65
2021/06/29 01:11:36;;;;;;;16.10;5.58;;;;;;;18.43;100.00;98912.55;1677812;84;21080;-67
2021/06/29 01:14:12;;;;;;;9.15;5.55;;;;;;;18.47;100.00;98912.86;1677550;84;20940;-67
2021/06/29 01:16:41;;;;;;;12.63;5.78;;;;;;;18.44;100.00;98905.81;1677501;84;21430;-64
2021/06/29 01:19:10;;;;;;;16.42;5.97;;;;;;;18.43;100.00;98904.08;1677506;84;21482;-65
2021/06/29 01:21:40;;;;;;;13.38;6.08;;;;;;;18.39;100.00;98899.80;1658614;84;21434;-64
2021/06/29 01:24:16;;;;;;;11.63;6.40;;;;;;;18.39;100.00;98906.94;1677534;84;21096;-65
2021/06/29 01:27:00;;;;;;;9.20;5.87;;;;;;;18.35;100.00;98910.67;1677486;84;20919;-64
2021/06/29 01:29:21;;;;;;;9.65;5.28;;;;;;;18.32;100.00;98907.66;1675986;84;20991;-65
2021/06/29 01:31:49;;;;;;;11.65;5.72;;;;;;;18.33;100.00;98913.41;1677625;84;20964;-64
2021/06/29 01:34:21;;;;;;;9.20;5.55;;;;;;;18.31;100.00;98911.27;1677566;84;21462;-64
2021/06/29 01:36:50;;;;;;;11.43;5.53;;;;;;;18.29;100.00;98912.26;1678014;84;21079;-64
2021/06/29 01:39:18;;;;;;;11.18;5.50;;;;;;;18.27;100.00;98914.13;1677441;84;21422;-66
2021/06/29 01:41:50;;;;;;;19.75;6.67;;;;;;;18.25;100.00;98916.85;1677615;84;21485;-63
2021/06/29 01:44:29;;;;;;;85.72;10.88;;;;;;;18.21;100.00;98916.11;1677544;84;21514;-64
2021/06/29 01:46:55;;;;;;;41.98;8.15;;;;;;;18.17;100.00;98918.50;1635438;86;20970;-63
2021/06/29 01:49:27;;;;;;;19.35;6.35;;;;;;;18.16;100.00;98923.91;1635279;86;21451;-66
2021/06/29 01:51:55;;;;;;;18.93;5.70;;;;;;;18.14;100.00;98918.63;1635959;86;20921;-64
2021/06/29 01:54:23;;;;;;;10.60;5.40;;;;;;;18.11;100.00;98920.09;1635655;86;21423;-66
2021/06/29 01:56:51;;;;;;;16.80;5.78;;;;;;;18.06;100.00;98918.53;1608373;87;21453;-66
2021/06/29 01:59:22;;;;;;;11.22;5.53;;;;;;;18.01;100.00;98924.05;1635403;87;21020;-65
2021/06/29 02:01:53;;;;;;;14.63;6.20;;;;;;;17.96;100.00;98923.34;1635835;86;21470;-64
2021/06/29 02:04:24;;;;;;;11.70;5.60;;;;;;;17.92;100.00;98920.39;1634898;86;21485;-63
2021/06/29 02:06:54;;;;;;;12.90;5.50;;;;;;;17.86;100.00;98917.50;1608382;87;21440;-63
2021/06/29 02:09:23;;;;;;;15.60;5.10;;;;;;;17.83;100.00;98918.08;1635421;86;21541;-63
2021/06/29 02:11:53;;;;;;;12.82;5.33;;;;;;;17.81;100.00;98911.47;1635873;86;21397;-64
2021/06/29 02:14:26;;;;;;;9.33;4.87;;;;;;;17.81;100.00;98915.47;1635861;86;21465;-64
2021/06/29 02:16:59;;;;;;;11.50;5.10;;;;;;;17.77;100.00;98916.98;1608370;87;20891;-64
2021/06/29 02:19:34;;;;;;;14.30;4.83;;;;;;;17.76;100.00;98913.91;1634184;87;21439;-63
2021/06/29 02:21:58;;;;;;;13.55;5.42;;;;;;;17.74;100.00;98914.44;1636478;85;21448;-63
2021/06/29 02:24:30;;;;;;;14.95;4.87;;;;;;;17.72;100.00;98913.63;1635782;86;21509;-63
2021/06/29 02:27:05;;;;;;;12.90;5.30;;;;;;;17.70;100.00;98916.81;1635881;86;21030;-63
2021/06/29 02:29:34;;;;;;;13.20;5.05;;;;;;;17.70;100.00;98916.81;1608152;87;21560;-63
2021/06/29 02:32:06;;;;;;;13.72;5.40;;;;;;;17.69;100.00;98916.41;1635674;86;21020;-63
2021/06/29 02:34:37;;;;;;;10.38;5.40;;;;;;;17.65;100.00;98919.63;1635711;86;21027;-61
2021/06/29 02:37:07;;;;;;;16.00;5.65;;;;;;;17.65;100.00;98923.63;1634324;86;21489;-63
2021/06/29 02:39:38;;;;;;;10.32;4.60;;;;;;;17.62;100.00;98923.28;1608157;87;21936;-63
2021/06/29 02:42:08;;;;;;;11.97;5.33;;;;;;;17.63;100.00;98932.16;1635278;86;20980;-62
2021/06/29 02:44:42;;;;;;;13.20;5.22;;;;;;;17.68;100.00;98925.34;1635685;86;21545;-63
2021/06/29 02:47:09;;;;;;;20.72;6.37;;;;;;;17.73;100.00;98930.03;1635748;86;21458;-63
2021/06/29 02:49:42;;;;;;;12.60;5.65;;;;;;;17.76;100.00;98924.12;1608223;87;21081;-63
2021/06/29 02:52:11;;;;;;;19.10;6.10;;;;;;;17.79;100.00;98925.33;1634887;86;21419;-63
2021/06/29 02:54:40;;;;;;;19.05;6.10;;;;;;;17.83;100.00;98928.75;1635581;86;20926;-62
2021/06/29 02:57:09;;;;;;;13.10;5.75;;;;;;;17.86;100.00;98926.83;1623975;87;21485;-63
2021/06/29 02:59:39;;;;;;;12.70;5.92;;;;;;;17.92;100.00;98927.05;1635341;86;21027;-63
2021/06/29 03:02:09;;;;;;;14.98;6.50;;;;;;;17.94;100.00;98923.40;1635696;86;20974;-63
2021/06/29 03:04:38;;;;;;;25.68;6.75;;;;;;;17.97;100.00;98922.41;1635580;86;21130;-63
2021/06/29 03:07:09;;;;;;;25.12;7.95;;;;;;;18.01;100.00;98922.72;1608080;87;20954;-63
2021/06/29 03:09:37;;;;;;;12.68;5.50;;;;;;;18.05;100.00;98928.34;1635357;86;21015;-63
2021/06/29 03:12:07;;;;;;;8.15;5.20;;;;;;;18.09;100.00;98923.28;1635618;86;21220;-63
2021/06/29 03:14:36;;;;;;;12.28;5.92;;;;;;;18.14;100.00;98922.62;1635649;86;20914;-61
2021/06/29 03:17:05;;;;;;;6.47;5.72;;;;;;;18.18;100.00;98922.91;1608361;87;21494;-61
2021/06/29 03:19:35;;;;;;;11.30;6.00;;;;;;;18.22;100.00;98919.66;1635364;86;20881;-63
2021/06/29 03:22:06;;;;;;;11.97;5.95;;;;;;;18.27;100.00;98926.14;1634910;86;20974;-63
2021/06/29 03:24:36;;;;;;;12.75;5.53;;;;;;;18.32;100.00;98928.16;1635757;86;21097;-62
2021/06/29 03:27:05;;;;;;;7.35;5.83;;;;;;;18.37;100.00;98932.38;1608376;87;21469;-63
2021/06/29 03:29:35;;;;;;;8.30;6.65;;;;;;;18.41;100.00;98927.77;1635411;86;21164;-62
2021/06/29 03:32:04;;;;;;;9.73;6.03;;;;;;;18.42;100.00;98931.72;1635809;86;20907;-62
2021/06/29 03:34:32;;;;;;;10.32;6.45;;;;;;;18.43;100.00;98934.78;1635584;86;20995;-63
2021/06/29 03:37:03;;;;;;;8.03;6.70;;;;;;;18.45;100.00;98937.42;1608326;87;22232;-62
2021/06/29 03:39:33;;;;;;;8.45;7.00;;;;;;;18.46;100.00;98937.37;1635516;86;20976;-63
2021/06/29 03:42:01;;;;;;;8.05;7.28;;;;;;;18.52;100.00;98937.58;1635808;86;21096;-64
2021/06/29 03:44:29;;;;;;;8.65;7.22;;;;;;;18.58;100.00;98937.31;1635494;86;20923;-63
2021/06/29 03:46:57;;;;;;;14.10;7.17;;;;;;;18.64;100.00;98933.09;1608269;87;21465;-65
2021/06/29 03:49:25;;;;;;;10.68;7.12;;;;;;;18.71;100.00;98933.69;1635322;86;20959;-67
2021/06/29 03:51:53;;;;;;;9.18;7.10;;;;;;;18.78;100.00;98931.16;1635796;86;21571;-63
2021/06/29 03:54:21;;;;;;;11.18;6.97;;;;;;;18.82;100.00;98932.30;1635536;86;21942;-63
2021/06/29 03:56:49;;;;;;;6.92;5.40;;;;;;;18.91;100.00;98934.17;1608354;87;21410;-67
2021/06/29 03:59:17;;;;;;;8.98;5.75;;;;;;;18.97;100.00;98929.46;1635495;87;21522;-67
2021/06/29 04:01:46;;;;;;;13.53;6.15;;;;;;;19.07;100.00;98929.45;1635755;86;20914;-69
2021/06/29 04:04:16;;;;;;;11.38;6.08;;;;;;;19.18;100.00;98928.98;1635851;86;21078;-69
2021/06/29 04:06:44;;;;;;;8.38;5.35;;;;;;;19.29;100.00;98927.16;1615189;86;21532;-67
2021/06/29 04:09:12;;;;;;;11.03;6.03;;;;;;;19.37;100.00;98930.36;1607829;87;21084;-67
2021/06/29 04:11:43;;;;;;;12.35;5.62;;;;;;;19.41;100.00;98923.50;1635952;86;21492;-67
2021/06/29 04:14:12;;;;;;;16.20;5.15;;;;;;;19.48;100.00;98933.45;1622166;86;21500;-66
2021/06/29 04:16:40;;;;;;;9.15;4.83;;;;;;;19.57;100.00;98927.70;1627149;86;21539;-66
2021/06/29 04:19:08;;;;;;;6.75;4.92;;;;;;;19.69;100.00;98926.27;1624902;86;21121;-68
2021/06/29 04:21:36;;;;;;;9.20;5.40;;;;;;;19.79;100.00;98928.91;1675126;84;20973;-66
2021/06/29 04:24:05;;;;;;;7.37;4.97;;;;;;;19.91;100.00;98923.48;1666358;84;20959;-65
2021/06/29 04:26:34;;;;;;;7.50;5.03;;;;;;;20.00;100.00;98921.70;1619805;86;20967;-65
2021/06/29 04:29:02;;;;;;;7.78;5.10;;;;;;;20.13;100.00;98921.50;1639140;86;20926;-66
2021/06/29 04:31:30;;;;;;;10.50;6.25;;;;;;;20.27;100.00;98916.81;1622442;86;21119;-66
2021/06/29 04:33:58;;;;;;;13.88;8.20;;;;;;;20.38;100.00;98916.70;1627069;86;20899;-66
2021/06/29 04:36:26;;;;;;;14.35;9.65;;;;;;;20.50;100.00;98920.62;1668682;84;20981;-66
2021/06/29 04:38:54;;;;;;;11.08;6.37;;;;;;;20.63;100.00;98918.19;1675019;84;20963;-65
2021/06/29 04:41:23;;;;;;;9.23;5.33;;;;;;;20.76;100.00;98919.30;1637451;85;21019;-66
2021/06/29 04:43:51;;;;;;;10.10;5.65;;;;;;;20.89;100.00;98924.92;1663637;84;21113;-65
2021/06/29 04:46:20;;;;;;;8.73;5.30;;;;;;;20.97;100.00;98918.69;1633567;86;20943;-64
2021/06/29 04:48:49;;;;;;;12.05;5.67;;;;;;;21.04;100.00;98922.79;1663683;84;21009;-64
2021/06/29 04:51:17;;;;;;;7.42;4.55;;;;;;;21.14;100.00;98921.83;1633620;86;21149;-68
2021/06/29 04:53:45;;;;;;;11.68;4.70;;;;;;;21.23;100.00;98920.03;1656494;84;20949;-65
2021/06/29 04:56:18;;;;;;;4.40;3.77;;;;;;;21.33;100.00;98918.63;1633573;86;21102;-65
2021/06/29 04:58:52;;;;;;;6.17;3.95;;;;;;;21.45;100.00;98910.39;1657042;84;20958;-64
2021/06/29 05:01:17;;;;;;;4.75;3.92;;;;;;;21.56;100.00;98910.67;1663101;84;20894;-67
2021/06/29 05:03:45;;;;;;;8.03;3.75;;;;;;;21.68;100.00;98908.18;1663597;84;20957;-64
2021/06/29 05:06:12;;;;;;;8.63;3.98;;;;;;;21.82;100.00;98909.27;1633559;86;21522;-64
2021/06/29 05:08:42;;;;;;;6.05;3.67;;;;;;;21.92;100.00;98908.66;1663558;84;21059;-64
2021/06/29 05:11:09;;;;;;;5.42;4.10;;;;;;;22.01;100.00;98900.56;1633564;86;21043;-66
2021/06/29 05:13:37;;;;;;;4.72;3.72;;;;;;;22.08;100.00;98903.33;1663581;84;21465;-64
2021/06/29 05:16:05;;;;;;;6.03;3.90;;;;;;;22.17;100.00;98901.45;1633550;86;21451;-64
2021/06/29 05:18:32;;;;;;;3.62;3.22;;;;;;;22.28;100.00;98898.19;1663558;84;20977;-64
2021/06/29 05:21:00;;;;;;;5.22;3.33;;;;;;;22.39;100.00;98898.91;1633571;86;21101;-66
2021/06/29 05:23:28;;;;;;;4.22;3.50;;;;;;;22.47;100.00;98900.19;1663472;84;20863;-65
2021/06/29 05:25:55;;;;;;;4.47;3.05;;;;;;;22.57;100.00;98897.83;1633602;86;21016;-65
2021/06/29 05:28:24;;;;;;;8.65;3.65;;;;;;;22.65;100.00;98897.37;1662875;84;21439;-64
2021/06/29 05:30:53;;;;;;;8.38;2.87;;;;;;;22.74;100.00;98901.75;1633689;86;21521;-65
2021/06/29 05:33:20;;;;;;;6.75;3.30;;;;;;;22.84;100.00;98903.45;1663596;84;21173;-65
2021/06/29 05:35:49;;;;;;;6.78;3.52;;;;;;;22.93;100.00;98902.89;1633566;86;21497;-65
2021/06/29 05:38:16;;;;;;;5.03;3.12;;;;;;;23.03;100.00;98905.41;1663657;84;21438;-63
2021/06/29 05:40:44;;;;;;;4.95;3.50;;;;;;;23.15;100.00;98909.17;1633673;86;20883;-64
2021/06/29 05:43:12;;;;;;;4.22;3.15;;;;;;;23.25;100.00;98900.95;1663696;84;21449;-64
2021/06/29 05:45:40;;;;;;;3.85;2.70;;;;;;;23.34;100.00;98900.38;1633727;86;21033;-65
2021/06/29 05:48:08;;;;;;;5.03;3.00;;;;;;;23.44;100.00;98897.50;1660410;84;20894;-63
2021/06/29 05:50:36;;;;;;;8.28;2.98;;;;;;;23.54;100.00;98900.00;1663965;84;20890;-64
2021/06/29 05:53:04;;;;;;;6.12;2.90;;;;;;;23.64;100.00;98903.48;1653369;84;20961;-64
2021/06/29 05:55:31;;;;;;;4.10;2.80;;;;;;;23.75;100.00;98907.75;1633745;86;21503;-64
2021/06/29 05:57:59;;;;;;;5.10;2.90;;;;;;;23.83;100.00;98906.29;1663776;84;21102;-65
2021/06/29 06:00:26;;;;;;;4.90;3.10;;;;;;;23.94;100.00;98905.60;1633679;86;21499;-64
2021/06/29 06:02:53;;;;;;;2.70;2.47;;;;;;;24.06;100.00;98901.24;1663706;84;20958;-66
2021/06/29 06:05:21;;;;;;;4.17;2.45;;;;;;;24.14;100.00;98902.50;1633403;86;20966;-65
2021/06/29 06:07:49;;;;;;;5.67;3.00;;;;;;;24.23;100.00;98895.64;1663725;84;20949;-66
2021/06/29 06:10:16;;;;;;;4.58;2.92;;;;;;;24.33;100.00;98903.53;1633659;86;21933;-64
2021/06/29 06:12:44;;;;;;;4.58;3.58;;;;;;;24.44;100.00;98903.69;1663595;84;20882;-64
2021/06/29 06:15:12;;;;;;;30.70;15.23;;;;;;;24.54;100.00;98903.94;1633679;86;20972;-64
2021/06/29 06:17:41;;;;;;;20.40;12.33;;;;;;;24.62;100.00;98902.11;1663656;84;20933;-64
2021/06/29 06:20:10;;;;;;;7.15;5.10;;;;;;;24.72;100.00;98901.86;1657827;85;20974;-64
2021/06/29 06:22:38;;;;;;;7.40;3.33;;;;;;;24.82;100.00;98900.27;1633425;86;21155;-64
2021/06/29 06:25:07;;;;;;;3.37;2.55;;;;;;;24.91;100.00;98894.23;1656443;85;20950;-63
2021/06/29 06:27:35;;;;;;;3.20;2.62;;;;;;;25.02;100.00;98897.09;1633542;86;20959;-63
2021/06/29 06:30:04;;;;;;;3.37;3.00;;;;;;;25.13;100.00;98898.22;1664196;84;21520;-63
2021/06/29 06:32:32;;;;;;;4.78;2.85;;;;;;;25.22;100.00;98898.92;1633734;86;20967;-63
2021/06/29 06:34:59;;;;;;;36.13;19.52;;;;;;;25.32;100.00;98903.56;1664237;84;21053;-63
2021/06/29 06:37:27;;;;;;;10.98;7.05;;;;;;;25.43;100.00;98904.16;1664175;84;20953;-63
2021/06/29 06:39:55;;;;;;;6.17;3.80;;;;;;;25.53;100.00;98899.83;1633750;86;20859;-64
2021/06/29 06:42:38;;;;;;;5.25;3.80;;;;;;;25.63;100.00;98902.28;1666064;84;20902;-64
2021/06/29 06:45:13;;;;;;;15.05;13.35;;;;;;;25.76;100.00;98907.70;1671668;84;20866;-64
2021/06/29 06:47:41;;;;;;;8.00;4.50;;;;;;;25.85;100.00;98902.98;1641474;86;21910;-63
2021/06/29 06:50:12;;;;;;;5.60;4.22;;;;;;;25.92;100.00;98910.16;1671684;84;21474;-63
2021/06/29 06:52:40;;;;;;;8.25;7.45;;;;;;;26.00;100.00;98900.51;1671486;84;21463;-64
2021/06/29 06:55:08;;;;;;;7.37;4.37;;;;;;;26.08;100.00;98912.63;1673178;84;20915;-63
2021/06/29 06:57:35;;;;;;;7.58;6.75;;;;;;;26.15;100.00;98913.91;1673549;84;20943;-63
2021/06/29 07:00:09;;;;;;;9.53;5.78;;;;;;;26.20;100.00;98911.23;1673483;84;21063;-63
2021/06/29 07:02:37;;;;;;;4.03;3.05;;;;;;;26.28;100.00;98912.89;1666747;84;20953;-62
2021/06/29 07:05:06;;;;;;;5.17;3.85;;;;;;;26.37;100.00;98905.09;1673448;84;20955;-63
2021/06/29 07:07:33;;;;;;;3.33;2.85;;;;;;;26.45;100.00;98906.73;1654124;84;21521;-64
2021/06/29 07:10:03;;;;;;;4.45;3.35;;;;;;;26.51;100.00;98900.41;1673214;84;21469;-64
2021/06/29 07:12:31;;;;;;;5.40;3.70;;;;;;;26.59;100.00;98906.11;1673327;84;21110;-63
2021/06/29 07:14:58;;;;;;;6.42;3.17;;;;;;;26.65;100.00;98902.94;1673493;84;20918;-62
2021/06/29 07:17:26;;;;;;;3.12;2.67;;;;;;;26.73;100.00;98905.55;1672987;84;20925;-63
2021/06/29 07:19:53;;;;;;;5.87;2.90;;;;;;;26.80;100.00;98899.55;1674473;84;20947;-63
2021/06/29 07:22:21;;;;;;;8.53;2.60;;;;;;;26.87;100.00;98908.92;1647204;85;20915;-62
2021/06/29 07:24:49;;;;;;;4.30;3.22;;;;;;;26.97;100.00;98909.97;1624801;87;21920;-63
2021/06/29 07:27:16;;;;;;;4.33;2.30;;;;;;;27.07;100.00;98904.74;1626655;84;20871;-63
2021/06/29 07:29:44;;;;;;;3.75;2.02;;;;;;;27.17;100.00;98905.75;1666490;84;20957;-64
2021/06/29 07:32:11;;;;;;;3.98;2.22;;;;;;;27.28;100.00;98901.70;1673576;84;20879;-63
2021/06/29 07:34:39;;;;;;;3.50;2.20;;;;;;;27.40;100.00;98911.20;1673759;84;20918;-63
2021/06/29 07:37:08;;;;;;;2.65;2.10;;;;;;;27.50;100.00;98902.26;1673238;84;21702;-63
2021/06/29 07:39:36;;;;;;;4.12;2.10;;;;;;;27.58;100.00;98897.09;1673665;84;20985;-63
2021/06/29 07:42:04;;;;;;;2.30;2.10;;;;;;;27.66;98.43;98899.71;1673613;84;21412;-65
2021/06/29 07:44:32;;;;;;;2.90;1.90;;;;;;;27.73;95.77;98896.87;1618734;86;20982;-63
2021/06/29 07:47:00;;;;;;;3.27;1.85;;;;;;;27.78;95.92;98898.72;1621875;87;20938;-63
2021/06/29 07:49:29;;;;;;;3.20;2.00;;;;;;;27.85;93.17;98898.10;1627572;86;21181;-63
2021/06/29 07:51:57;;;;;;;2.72;2.05;;;;;;;27.96;92.92;98904.53;1608681;87;20891;-63
2021/06/29 07:54:24;;;;;;;2.67;1.90;;;;;;;28.01;91.14;98902.31;1627856;87;21012;-63
2021/06/29 07:56:54;;;;;;;4.45;2.37;;;;;;;28.02;88.43;98895.90;1622911;86;21438;-63
2021/06/29 07:59:22;;;;;;;5.62;2.33;;;;;;;28.05;91.00;98899.72;1627442;86;20976;-63
2021/06/29 08:01:51;;;;;;;4.25;2.10;;;;;;;28.05;90.24;98907.36;1671640;84;21113;-63
2021/06/29 08:04:18;;;;;;;1.90;1.80;;;;;;;28.08;86.83;98898.97;1675144;84;21513;-63
2021/06/29 08:06:47;;;;;;;2.20;1.77;;;;;;;28.13;83.60;98904.88;1638954;86;20986;-64
2021/06/29 08:09:15;;;;;;;3.20;2.00;;;;;;;28.19;81.00;98907.09;1675425;84;20972;-62
2021/06/29 08:11:42;;;;;;;4.53;2.10;;;;;;;28.26;78.30;98911.54;1675110;84;20887;-63
2021/06/29 08:14:10;;;;;;;2.30;2.10;;;;;;;28.31;78.30;98901.67;1638948;86;21099;-64
2021/06/29 08:16:39;;;;;;;3.40;1.85;;;;;;;28.39;80.00;98910.92;1675250;84;21524;-62
2021/06/29 08:19:06;;;;;;;2.45;1.80;;;;;;;28.48;77.09;98908.80;1675257;84;20929;-63
2021/06/29 08:21:34;;;;;;;2.85;1.72;;;;;;;28.59;76.92;98899.76;1675272;84;20951;-63
2021/06/29 08:24:04;;;;;;;2.52;2.00;;;;;;;28.71;76.38;98900.58;1639030;85;21482;-63
2021/06/29 08:26:32;;;;;;;4.20;1.77;;;;;;;28.75;74.49;98911.05;1632032;86;21142;-64
2021/06/29 08:29:00;;;;;;;2.08;1.80;;;;;;;28.75;75.67;98912.40;1622086;86;20887;-65
2021/06/29 08:31:27;;;;;;;1.80;1.70;;;;;;;28.73;71.61;98908.09;1627634;86;21457;-64
2021/06/29 08:33:56;;;;;;;11.80;2.00;;;;;;;28.69;70.56;98909.34;1625739;86;20975;-64
2021/06/29 08:36:25;;;;;;;3.55;1.75;;;;;;;28.73;68.42;98908.09;1675422;84;21432;-64
2021/06/29 08:38:55;;;;;;;5.73;2.10;;;;;;;28.82;69.91;98902.74;1670693;84;20957;-64
2021/06/29 08:41:22;;;;;;;4.55;2.02;;;;;;;28.93;70.87;98906.46;1675007;84;20911;-64
2021/06/29 08:43:51;;;;;;;5.08;2.05;;;;;;;28.99;68.06;98908.16;1637710;86;20982;-64
2021/06/29 08:46:19;;;;;;;2.72;1.85;;;;;;;29.08;67.06;98909.22;1663255;84;20938;-64
2021/06/29 08:48:46;;;;;;;3.33;1.72;;;;;;;29.15;62.53;98904.48;1670012;84;20929;-64
2021/06/29 08:51:14;;;;;;;2.72;1.70;;;;;;;29.23;61.80;98913.83;1671490;84;21071;-65
2021/06/29 08:53:41;;;;;;;2.02;1.92;;;;;;;29.19;56.50;98907.80;1671670;84;20992;-63
2021/06/29 08:56:15;;;;;;;6.08;1.90;;;;;;;29.18;57.45;98907.43;1671536;84;20926;-64
2021/06/29 08:58:39;;;;;;;3.65;1.72;;;;;;;29.17;58.66;98910.28;1672576;84;20876;-63
2021/06/29 09:01:06;;;;;;;2.17;1.60;;;;;;;29.22;58.42;98914.32;1673624;84;20910;-63
2021/06/29 09:03:34;;;;;;;1.72;1.62;;;;;;;29.24;56.89;98912.33;1673498;84;21785;-63
2021/06/29 09:06:02;;;;;;;2.30;1.80;;;;;;;29.26;59.07;98913.55;1673162;84;20896;-64
2021/06/29 09:08:32;;;;;;;1.95;1.70;;;;;;;29.29;59.94;98913.29;1673794;84;20951;-64
2021/06/29 09:11:15;;;;;;;1.82;1.72;;;;;;;29.33;59.61;98907.98;1653081;85;37569;-63
2021/06/29 09:14:09;;;;;;;1.87;1.67;;;;;;;29.41;62.26;98904.97;1671872;84;20904;-64
2021/06/29 09:16:38;;;;;;;3.37;2.08;;;;;;;29.49;62.64;98898.03;1665050;84;21117;-63
2021/06/29 09:19:05;;;;;;;4.08;1.60;;;;;;;29.60;61.13;98906.09;1673498;84;20955;-63
2021/06/29 09:21:36;;;;;;;3.02;1.75;;;;;;;29.65;58.81;98895.67;1673231;84;21472;-63
2021/06/29 09:24:03;;;;;;;2.40;1.60;;;;;;;29.70;57.89;98898.34;1673145;84;20903;-63
2021/06/29 09:26:31;;;;;;;3.58;1.90;;;;;;;29.78;59.45;98887.65;1673093;84;20949;-63
2021/06/29 09:29:01;;;;;;;3.90;1.92;;;;;;;29.86;57.42;98885.64;1671384;84;21091;-63
2021/06/29 09:31:34;;;;;;;2.90;1.90;;;;;;;29.88;57.17;98889.58;1671516;84;20909;-63
2021/06/29 09:34:07;;;;;;;2.70;1.90;;;;;;;29.82;57.59;98884.69;1671510;84;21428;-63
2021/06/29 09:36:37;;;;;;;3.40;1.92;;;;;;;29.74;56.62;98880.77;1671618;84;21029;-64
2021/06/29 09:39:13;;;;;;;1.90;1.70;;;;;;;29.65;56.92;98878.87;1671446;84;20957;-64
2021/06/29 09:41:41;;;;;;;3.40;1.72;;;;;;;29.55;59.65;98877.10;1671754;84;21077;-64
2021/06/29 09:44:11;;;;;;;2.40;2.20;;;;;;;29.52;63.66;98877.38;1666929;84;20905;-64
2021/06/29 09:46:39;;;;;;;3.22;1.87;;;;;;;29.56;64.42;98877.47;1633859;86;21414;-64
2021/06/29 09:49:13;;;;;;;1.72;1.50;;;;;;;29.64;63.16;98874.92;1663898;84;20953;-64
2021/06/29 09:51:49;;;;;;;8.13;1.70;;;;;;;29.68;62.47;98874.52;1664140;85;20930;-63
2021/06/29 09:54:18;;;;;;;9.60;1.95;;;;;;;29.71;61.31;98873.37;1633645;86;21107;-63
2021/06/29 09:56:48;;;;;;;3.27;1.80;;;;;;;29.74;62.79;98873.11;1664088;84;21572;-63
2021/06/29 09:59:18;;;;;;;5.03;2.05;;;;;;;29.73;61.39;98870.03;1663936;84;20945;-63
2021/06/29 10:01:48;;;;;;;4.28;1.80;;;;;;;29.65;60.67;98865.77;1633870;86;21433;-64
2021/06/29 10:04:15;;;;;;;5.75;1.98;;;;;;;29.60;60.43;98864.83;1663886;84;21032;-66
2021/06/29 10:06:44;;;;;;;3.85;1.80;;;;;;;29.57;59.31;98856.95;1633782;86;21772;-66
2021/06/29 10:09:14;;;;;;;22.87;2.30;;;;;;;29.51;60.09;98857.48;1632757;84;20874;-66
2021/06/29 10:11:44;;;;;;;3.65;1.77;;;;;;;29.48;63.37;98857.77;1607597;88;20920;-66
2021/06/29 10:14:15;;;;;;;9.13;1.92;;;;;;;29.54;62.73;98858.58;1636417;86;20957;-67
2021/06/29 10:16:51;;;;;;;3.02;1.70;;;;;;;29.62;58.86;98857.89;1582822;89;20950;-67
2021/06/29 10:22:05;;;;;;;1.57;1.47;;;;;;;29.87;65.26;98848.43;1582716;89;20930;-68
2021/06/29 10:24:36;;;;;;;3.72;1.72;;;;;;;30.00;64.61;98847.67;1611102;87;21429;-69
2021/06/29 10:27:07;;;;;;;1.95;1.60;;;;;;;30.15;64.32;98849.03;1636173;86;20971;-68
2021/06/29 10:29:35;;;;;;;3.20;1.62;;;;;;;30.30;63.01;98839.99;1607573;89;20967;-68
2021/06/29 10:32:11;;;;;;;2.02;1.67;;;;;;;30.45;61.29;98838.56;1637248;86;21087;-68
2021/06/29 10:34:39;;;;;;;1.72;1.62;;;;;;;30.62;60.13;98837.89;1607647;88;21468;-68
2021/06/29 10:37:08;;;;;;;2.17;1.35;;;;;;;30.79;61.17;98834.11;1617314;87;20918;-68
2021/06/29 10:39:36;;;;;;;2.72;1.50;;;;;;;30.96;57.71;98839.67;1582847;89;20986;-68
2021/06/29 10:42:10;;;;;;;4.15;1.65;;;;;;;31.10;54.25;98837.00;1584444;89;20986;-70
2021/06/29 10:44:40;;;;;;;4.62;1.80;;;;;;;31.13;51.29;98830.39;1582392;89;21092;-69
2021/06/29 10:47:32;;;;;;;3.37;1.47;;;;;;;31.09;49.21;98835.78;1611037;87;20934;-70
2021/06/29 10:50:02;;;;;;;4.42;1.52;;;;;;;31.01;48.80;98837.88;1611560;87;20942;-70
2021/06/29 10:52:34;;;;;;;13.35;1.75;;;;;;;30.97;50.52;98831.86;1626297;86;20958;-70
2021/06/29 10:55:09;;;;;;;5.47;1.62;;;;;;;30.95;46.80;98831.14;1613001;87;20970;-70
2021/06/29 10:57:45;;;;;;;1.50;1.40;;;;;;;30.86;45.39;98827.08;1608205;87;21084;-70
2021/06/29 11:00:29;;;;;;;3.50;1.50;;;;;;;30.89;48.25;98820.84;1623587;86;20907;-69
2021/06/29 11:03:07;;;;;;;2.02;1.72;;;;;;;30.98;48.50;98816.38;1635104;86;20938;-70
2021/06/29 11:05:42;;;;;;;1.57;1.45;;;;;;;31.08;47.53;98812.27;1611140;87;20926;-70
2021/06/29 11:08:23;;;;;;;3.98;1.70;;;;;;;31.10;46.99;98812.98;1630672;84;20984;-71
2021/06/29 11:10:53;;;;;;;;;;;;;;;31.13;48.89;98810.82;1653896;84;21105;-71
2021/06/29 11:13:45;;;;;;;3.00;1.60;;;;;;;31.18;47.51;98808.54;1650700;84;20180;-71
2021/06/29 11:16:14;;;;;;;5.00;1.50;;;;;;;31.09;44.62;98803.95;1655491;84;20928;-71
2021/06/29 11:18:49;;;;;;;3.17;1.55;;;;;;;30.92;42.58;98804.70;1625709;86;20968;-70
2021/06/29 11:21:27;;;;;;;3.72;1.55;;;;;;;30.92;43.64;98805.56;1650394;85;21431;-70
2021/06/29 11:23:54;;;;;;;2.30;1.60;;;;;;;31.03;44.71;98795.00;1655764;84;21590;-71
2021/06/29 11:26:24;;;;;;;2.15;1.50;;;;;;;31.12;43.41;98785.09;1651364;85;21458;-70
2021/06/29 11:28:52;;;;;;;2.85;1.80;;;;;;;31.23;43.63;98791.28;1643911;86;21464;-70
2021/06/29 11:31:29;;;;;;;13.05;2.00;;;;;;;31.38;45.82;98789.42;1625551;85;20979;-70
2021/06/29 11:34:10;;;;;;;10.28;2.00;;;;;;;31.56;46.52;98780.81;1660462;84;21009;-65
2021/06/29 11:36:52;;;;;;;2.00;1.45;;;;;;;31.73;47.50;98779.20;1631729;84;21120;-69
2021/06/29 11:39:24;;;;;;;6.72;1.72;;;;;;;31.88;48.67;98783.98;1611367;87;21452;-69